createdAt,value
2023-09-16T00:01:46.207Z,54.40
2023-09-16T00:04:13.249Z,54.40
2023-09-16T00:06:40.194Z,54.20
2023-09-16T00:09:07.071Z,54.20
2023-09-16T00:11:34.050Z,54.30
2023-09-16T00:14:01.383Z,54.30
2023-09-16T00:16:30.464Z,54.40
2023-09-16T00:21:26.096Z,54.60
2023-09-16T00:23:54.018Z,54.50
2023-09-16T00:26:21.176Z,54.50
2023-09-16T00:28:49.122Z,54.70
2023-09-16T00:31:17.252Z,54.90
2023-09-16T00:33:44.631Z,54.80
2023-09-16T00:36:11.522Z,54.70
2023-09-16T00:38:38.504Z,54.70
2023-09-16T00:41:05.378Z,54.60
2023-09-16T00:43:32.177Z,54.60
2023-09-16T00:45:59.033Z,54.70
2023-09-16T00:48:26.275Z,54.70
2023-09-16T00:50:53.542Z,54.70
2023-09-16T00:53:21.236Z,54.70
2023-09-16T00:55:49.460Z,54.80
2023-09-16T00:58:20.138Z,54.90
2023-09-16T01:00:48.091Z,55.00
2023-09-16T01:03:17.391Z,55.20
2023-09-16T01:05:48.216Z,55.30
2023-09-16T01:08:16.513Z,55.30
2023-09-16T01:10:43.734Z,55.00
2023-09-16T01:13:11.125Z,55.00
2023-09-16T01:15:47.704Z,55.80
2023-09-16T01:18:34.458Z,55.10
2023-09-16T01:21:04.870Z,55.00
2023-09-16T01:23:33.765Z,54.80
2023-09-16T01:26:02.604Z,54.80
2023-09-16T01:28:29.472Z,54.90
2023-09-16T01:30:57.163Z,54.90
2023-09-16T01:33:31.395Z,54.90
2023-09-16T01:36:05.120Z,54.90
2023-09-16T01:38:34.700Z,54.80
2023-09-16T01:41:03.319Z,54.90
2023-09-16T01:43:30.458Z,54.80
2023-09-16T01:45:57.434Z,54.80
2023-09-16T01:48:36.410Z,54.80
2023-09-16T01:51:07.609Z,54.80
2023-09-16T01:53:34.551Z,54.70
2023-09-16T01:56:01.678Z,54.60
2023-09-16T01:58:28.751Z,54.70
2023-09-16T02:00:56.099Z,54.90
2023-09-16T02:03:23.057Z,54.80
2023-09-16T02:05:49.957Z,55.00
2023-09-16T02:08:17.201Z,55.00
2023-09-16T02:10:44.223Z,55.10
2023-09-16T02:13:11.079Z,55.00
2023-09-16T02:15:37.957Z,55.00
2023-09-16T02:18:05.138Z,55.00
2023-09-16T02:20:34.498Z,55.00
2023-09-16T02:23:03.326Z,55.00
2023-09-16T02:25:30.352Z,55.00
2023-09-16T02:27:57.169Z,55.80
2023-09-16T02:30:24.331Z,55.30
2023-09-16T02:32:51.531Z,55.50
2023-09-16T02:35:19.719Z,55.70
2023-09-16T02:37:46.534Z,55.80
2023-09-16T02:40:13.382Z,55.70
2023-09-16T02:42:40.244Z,55.60
2023-09-16T02:45:07.629Z,55.40
2023-09-16T02:47:35.680Z,55.50
2023-09-16T02:50:03.669Z,55.40
2023-09-16T02:52:31.794Z,55.40
2023-09-16T02:54:59.002Z,55.30
2023-09-16T02:57:25.944Z,55.30
2023-09-16T02:59:53.552Z,55.30
2023-09-16T03:02:21.503Z,55.20
2023-09-16T03:04:48.490Z,55.30
2023-09-16T03:07:15.646Z,55.30
2023-09-16T03:09:43.183Z,55.40
2023-09-16T03:12:12.217Z,55.40
2023-09-16T03:14:39.466Z,55.40
2023-09-16T03:17:07.401Z,55.30
2023-09-16T03:19:36.092Z,55.30
2023-09-16T03:22:03.222Z,55.30
2023-09-16T03:24:31.194Z,55.40
2023-09-16T03:26:58.255Z,55.40
2023-09-16T03:29:25.579Z,55.50
2023-09-16T03:31:53.748Z,55.40
2023-09-16T03:34:22.113Z,55.40
2023-09-16T03:36:49.187Z,55.50
2023-09-16T03:39:16.350Z,55.50
2023-09-16T03:41:43.321Z,55.60
2023-09-16T03:44:12.307Z,55.70
2023-09-16T03:46:42.919Z,55.70
2023-09-16T03:49:10.567Z,55.70
2023-09-16T03:51:41.129Z,55.60
2023-09-16T03:54:11.186Z,55.60
2023-09-16T03:56:38.804Z,55.50
2023-09-16T03:59:06.446Z,56.10
2023-09-16T04:01:33.686Z,55.40
2023-09-16T04:04:00.715Z,55.50
2023-09-16T04:06:27.701Z,55.50
2023-09-16T04:08:54.957Z,55.50
2023-09-16T04:11:22.722Z,55.50
2023-09-16T04:13:50.034Z,55.50
2023-09-16T04:16:17.283Z,55.60
2023-09-16T04:18:44.198Z,55.70
2023-09-16T04:21:11.134Z,56.40
2023-09-16T04:23:38.008Z,55.70
2023-09-16T04:26:10.014Z,55.70
2023-09-16T04:28:37.482Z,55.60
2023-09-16T04:31:05.636Z,55.60
2023-09-16T04:33:36.294Z,55.60
2023-09-16T04:36:05.151Z,55.60
2023-09-16T04:38:33.153Z,55.40
2023-09-16T04:41:01.242Z,55.40
2023-09-16T04:43:28.613Z,55.30
2023-09-16T04:45:56.039Z,55.30
2023-09-16T04:48:34.707Z,55.30
2023-09-16T04:51:04.665Z,55.20
2023-09-16T04:53:33.181Z,55.20
2023-09-16T04:56:01.607Z,55.10
2023-09-16T04:58:30.586Z,55.10
2023-09-16T05:01:02.431Z,55.10
2023-09-16T05:03:29.598Z,55.10
2023-09-16T05:05:56.730Z,55.00
2023-09-16T05:08:28.148Z,55.30
2023-09-16T05:10:57.055Z,55.50
2023-09-16T05:13:24.820Z,55.80
2023-09-16T05:15:53.014Z,56.00
2023-09-16T05:18:20.098Z,56.30
2023-09-16T05:20:50.746Z,56.50
2023-09-16T05:23:18.328Z,56.60
2023-09-16T05:25:46.877Z,56.70
2023-09-16T05:28:16.290Z,56.90
2023-09-16T05:30:43.788Z,56.70
2023-09-16T05:33:11.809Z,56.70
2023-09-16T05:35:42.907Z,56.80
2023-09-16T05:38:11.972Z,57.00
2023-09-16T05:40:39.115Z,57.00
2023-09-16T05:43:06.907Z,57.60
2023-09-16T05:45:34.004Z,56.50
2023-09-16T05:48:04.171Z,56.80
2023-09-16T05:50:33.611Z,56.40
2023-09-16T05:53:00.726Z,56.30
2023-09-16T05:55:27.759Z,56.20
2023-09-16T05:57:55.598Z,56.10
2023-09-16T06:00:22.564Z,56.10
2023-09-16T06:02:51.250Z,56.00
2023-09-16T06:05:18.122Z,55.90
2023-09-16T06:07:46.698Z,56.00
2023-09-16T06:10:13.724Z,56.00
2023-09-16T06:12:40.791Z,56.10
2023-09-16T06:15:09.287Z,56.10
2023-09-16T06:17:37.054Z,56.10
2023-09-16T06:20:04.686Z,56.20
2023-09-16T06:22:31.848Z,56.20
2023-09-16T06:24:59.014Z,56.20
2023-09-16T06:27:27.040Z,56.30
2023-09-16T06:29:54.370Z,56.30
2023-09-16T06:32:22.833Z,56.40
2023-09-16T06:34:53.900Z,56.50
2023-09-16T06:37:20.732Z,56.40
2023-09-16T06:39:49.010Z,56.50
2023-09-16T06:42:19.364Z,56.40
2023-09-16T06:44:50.637Z,56.40
2023-09-16T06:47:17.491Z,56.50
2023-09-16T06:49:44.363Z,56.60
2023-09-16T06:52:11.278Z,56.70
2023-09-16T06:54:38.219Z,56.80
2023-09-16T06:57:05.154Z,56.90
2023-09-16T06:59:32.017Z,57.00
2023-09-16T07:01:59.113Z,57.10
2023-09-16T07:04:29.100Z,57.10
2023-09-16T07:06:56.191Z,57.10
2023-09-16T07:09:23.963Z,57.10
2023-09-16T07:11:50.908Z,56.80
2023-09-16T07:14:17.784Z,56.50
2023-09-16T07:16:44.740Z,56.10
2023-09-16T07:19:11.751Z,55.80
2023-09-16T07:21:38.701Z,55.40
2023-09-16T07:24:06.716Z,55.10
2023-09-16T07:26:33.880Z,55.20
2023-09-16T07:29:01.153Z,55.30
2023-09-16T07:31:28.263Z,55.40
2023-09-16T07:33:55.643Z,55.40
2023-09-16T07:36:22.919Z,55.90
2023-09-16T07:38:50.004Z,56.10
2023-09-16T07:41:17.152Z,56.20
2023-09-16T07:43:43.999Z,56.10
2023-09-16T07:46:10.971Z,56.20
2023-09-16T07:48:38.005Z,56.40
2023-09-16T07:51:04.898Z,56.50
2023-09-16T07:53:31.752Z,56.80
2023-09-16T07:55:58.674Z,57.10
2023-09-16T07:58:25.693Z,57.20
2023-09-16T08:00:53.544Z,57.30
2023-09-16T08:03:20.902Z,57.40
2023-09-16T08:05:47.999Z,57.50
2023-09-16T08:08:14.896Z,57.50
2023-09-16T08:10:45.583Z,57.50
2023-09-16T08:13:12.649Z,57.60
2023-09-16T08:15:39.646Z,58.50
2023-09-16T08:18:06.647Z,57.70
2023-09-16T08:20:33.564Z,57.60
2023-09-16T08:23:00.515Z,57.50
2023-09-16T08:25:27.514Z,57.80
2023-09-16T08:27:54.563Z,58.20
2023-09-16T08:30:22.601Z,58.50
2023-09-16T08:32:49.907Z,59.30
2023-09-16T08:35:16.879Z,59.10
2023-09-16T08:37:43.870Z,58.80
2023-09-16T08:40:11.213Z,59.00
2023-09-16T08:42:42.561Z,59.10
2023-09-16T08:45:15.540Z,58.70
2023-09-16T08:47:46.931Z,57.70
2023-09-16T08:50:16.542Z,57.90
2023-09-16T08:52:49.970Z,56.10
2023-09-16T08:55:17.646Z,56.20
2023-09-16T08:57:50.653Z,57.40
2023-09-16T09:00:18.226Z,58.30
2023-09-16T09:02:46.045Z,58.30
2023-09-16T09:05:13.561Z,56.80
2023-09-16T09:07:42.184Z,56.30
2023-09-16T09:10:12.332Z,56.30
2023-09-16T09:12:41.121Z,55.70
2023-09-16T09:15:15.110Z,55.10
2023-09-16T09:18:00.419Z,53.80
2023-09-16T09:20:28.955Z,53.50
2023-09-16T09:22:57.036Z,53.30
2023-09-16T09:25:26.005Z,53.40
2023-09-16T09:27:54.646Z,53.00
2023-09-16T09:30:28.120Z,50.50
2023-09-16T09:32:59.431Z,50.50
2023-09-16T09:35:30.823Z,51.20
2023-09-16T09:37:58.880Z,50.70
2023-09-16T09:40:26.001Z,49.20
2023-09-16T09:42:55.029Z,47.80
2023-09-16T09:45:24.090Z,46.50
2023-09-16T09:47:52.984Z,46.50
2023-09-16T09:50:21.584Z,45.90
2023-09-16T09:52:51.456Z,44.70
2023-09-16T09:55:19.621Z,43.40
2023-09-16T09:57:52.066Z,40.70
2023-09-16T10:00:21.397Z,39.20
2023-09-16T10:02:49.280Z,37.50
2023-09-16T10:05:23.553Z,38.80
2023-09-16T10:07:52.945Z,39.70
2023-09-16T10:10:21.460Z,41.20
2023-09-16T10:12:51.765Z,42.30
2023-09-16T10:15:23.239Z,40.50
2023-09-16T10:17:50.431Z,38.00
2023-09-16T10:20:17.972Z,38.20
2023-09-16T10:22:45.568Z,38.30
2023-09-16T10:25:17.573Z,37.90
2023-09-16T10:28:02.867Z,36.70
2023-09-16T10:30:31.673Z,35.70
2023-09-16T10:33:07.162Z,35.00
2023-09-16T10:35:38.422Z,34.40
2023-09-16T10:38:07.518Z,34.40
2023-09-16T10:40:35.011Z,34.00
2023-09-16T10:43:06.071Z,33.70
2023-09-16T10:45:33.396Z,34.10
2023-09-16T10:48:03.949Z,34.10
2023-09-16T10:50:37.694Z,33.00
2023-09-16T10:53:21.335Z,33.50
2023-09-16T10:56:06.207Z,32.80
2023-09-16T10:58:49.390Z,32.90
2023-09-16T11:01:27.591Z,33.30
2023-09-16T11:03:59.199Z,33.80
2023-09-16T11:06:26.578Z,31.00
2023-09-16T11:08:53.612Z,32.90
2023-09-16T11:11:22.222Z,32.70
2023-09-16T11:13:49.791Z,33.90
2023-09-16T11:16:16.736Z,35.20
2023-09-16T11:18:44.853Z,36.20
2023-09-16T11:21:13.397Z,36.20
2023-09-16T11:23:40.385Z,35.80
2023-09-16T11:26:07.514Z,35.40
2023-09-16T11:28:36.745Z,36.10
2023-09-16T11:31:03.770Z,36.80
2023-09-16T11:33:34.907Z,36.90
2023-09-16T11:36:12.206Z,34.80
2023-09-16T11:38:52.721Z,35.60
2023-09-16T11:41:19.908Z,36.20
2023-09-16T11:43:47.252Z,35.90
2023-09-16T11:46:14.301Z,35.10
2023-09-16T11:49:08.792Z,34.60
2023-09-16T11:51:38.795Z,36.50
2023-09-16T11:54:06.230Z,36.00
2023-09-16T11:56:37.073Z,36.50
2023-09-16T11:59:04.923Z,34.50
2023-09-16T12:01:34.389Z,35.10
2023-09-16T12:04:05.168Z,36.20
2023-09-16T12:06:36.075Z,36.00
2023-09-16T12:09:05.404Z,36.60
2023-09-16T12:11:33.895Z,36.30
2023-09-16T12:14:02.037Z,35.10
2023-09-16T12:16:29.363Z,34.40
2023-09-16T12:18:57.042Z,34.80
2023-09-16T12:21:24.293Z,34.20
2023-09-16T12:23:53.487Z,32.10
2023-09-16T12:26:21.126Z,32.00
2023-09-16T12:28:48.958Z,33.30
2023-09-16T12:31:22.884Z,33.20
2023-09-16T12:33:55.564Z,33.50
2023-09-16T12:36:28.755Z,34.50
2023-09-16T12:39:02.149Z,34.20
2023-09-16T12:41:30.238Z,34.10
2023-09-16T12:43:59.314Z,35.20
2023-09-16T12:46:29.310Z,35.50
2023-09-16T12:48:57.248Z,36.00
2023-09-16T12:51:25.246Z,36.70
2023-09-16T12:53:53.924Z,37.30
2023-09-16T12:56:21.199Z,37.40
2023-09-16T12:58:52.385Z,37.10
2023-09-16T13:01:21.658Z,38.20
2023-09-16T13:03:50.041Z,37.90
2023-09-16T13:06:18.510Z,38.10
2023-09-16T13:08:46.978Z,38.50
2023-09-16T13:11:15.559Z,39.50
2023-09-16T13:13:42.879Z,39.20
2023-09-16T13:16:12.144Z,39.10
2023-09-16T13:18:40.648Z,37.90
2023-09-16T13:21:07.906Z,39.50
2023-09-16T13:23:35.542Z,39.50
2023-09-16T13:26:11.512Z,38.90
2023-09-16T13:28:39.171Z,39.90
2023-09-16T13:31:06.387Z,39.30
2023-09-16T13:34:11.974Z,39.10
2023-09-16T13:36:39.868Z,38.80
2023-09-16T13:39:09.047Z,38.80
2023-09-16T13:41:38.018Z,38.00
2023-09-16T13:44:06.520Z,38.30
2023-09-16T13:46:34.037Z,38.70
2023-09-16T13:49:01.178Z,39.90
2023-09-16T13:51:28.420Z,39.20
2023-09-16T13:53:55.669Z,39.40
2023-09-16T13:56:25.052Z,39.50
2023-09-16T13:58:52.330Z,39.90
2023-09-16T14:01:19.785Z,39.50
2023-09-16T14:03:47.021Z,39.80
2023-09-16T14:06:14.241Z,39.90
2023-09-16T14:08:41.122Z,40.00
2023-09-16T14:11:08.100Z,39.50
2023-09-16T14:13:35.008Z,38.90
2023-09-16T14:16:02.085Z,39.10
2023-09-16T14:18:29.105Z,39.60
2023-09-16T14:20:56.098Z,40.40
2023-09-16T14:23:23.017Z,40.30
2023-09-16T14:25:50.002Z,40.30
2023-09-16T14:28:16.989Z,40.00
2023-09-16T14:30:44.041Z,40.30
2023-09-16T14:33:10.987Z,41.20
2023-09-16T14:35:37.979Z,41.20
2023-09-16T14:38:05.373Z,41.60
2023-09-16T14:40:36.069Z,41.30
2023-09-16T14:43:03.740Z,41.00
2023-09-16T14:45:30.744Z,41.40
2023-09-16T14:47:57.912Z,41.60
2023-09-16T14:50:24.921Z,41.70
2023-09-16T14:52:51.936Z,41.90
2023-09-16T14:55:19.348Z,42.20
2023-09-16T14:57:47.000Z,41.70
2023-09-16T15:00:14.440Z,42.60
2023-09-16T15:02:43.453Z,40.70
2023-09-16T15:05:11.091Z,41.80
2023-09-16T15:07:39.306Z,41.30
2023-09-16T15:10:08.623Z,41.20
2023-09-16T15:12:35.563Z,41.00
2023-09-16T15:15:02.808Z,41.70
2023-09-16T15:17:29.748Z,41.90
2023-09-16T15:19:56.647Z,41.50
2023-09-16T15:22:25.749Z,41.90
2023-09-16T15:24:53.094Z,42.10
2023-09-16T15:27:21.301Z,42.00
2023-09-16T15:29:48.454Z,41.50
2023-09-16T15:32:43.445Z,41.70
2023-09-16T15:35:02.762Z,41.90
2023-09-16T15:37:30.598Z,42.30
2023-09-16T15:39:58.063Z,42.40
2023-09-16T15:42:25.064Z,43.20
2023-09-16T15:44:51.989Z,42.10
2023-09-16T15:47:18.990Z,42.20
2023-09-16T15:49:46.009Z,42.20
2023-09-16T15:52:13.210Z,42.70
2023-09-16T15:54:40.139Z,42.90
2023-09-16T15:57:07.066Z,42.70
2023-09-16T15:59:34.069Z,43.40
2023-09-16T16:02:01.154Z,43.60
2023-09-16T16:04:28.336Z,43.30
2023-09-16T16:06:55.319Z,43.60
2023-09-16T16:09:22.583Z,43.50
2023-09-16T16:11:49.481Z,43.80
2023-09-16T16:14:16.358Z,43.70
2023-09-16T16:16:43.455Z,43.50
2023-09-16T16:19:12.482Z,44.10
2023-09-16T16:21:39.492Z,44.00
2023-09-16T16:24:06.918Z,43.90
2023-09-16T16:26:34.264Z,44.00
2023-09-16T16:29:01.854Z,44.30
2023-09-16T16:31:29.429Z,44.50
2023-09-16T16:33:58.667Z,44.50
2023-09-16T16:36:25.715Z,44.90
2023-09-16T16:38:52.738Z,45.00
2023-09-16T16:41:21.024Z,45.10
2023-09-16T16:43:49.857Z,44.50
2023-09-16T16:46:17.934Z,44.70
2023-09-16T16:48:45.152Z,45.00
2023-09-16T16:51:14.623Z,45.00
2023-09-16T16:53:42.740Z,44.70
2023-09-16T16:56:09.720Z,44.70
2023-09-16T16:58:38.598Z,44.70
2023-09-16T17:01:05.788Z,44.80
2023-09-16T17:03:32.916Z,44.80
2023-09-16T17:05:59.924Z,44.80
2023-09-16T17:08:26.845Z,45.00
2023-09-16T17:10:53.797Z,45.10
2023-09-16T17:13:20.843Z,45.50
2023-09-16T17:15:47.770Z,45.40
2023-09-16T17:18:14.705Z,45.50
2023-09-16T17:20:41.846Z,45.40
2023-09-16T17:23:08.851Z,45.30
2023-09-16T17:25:36.761Z,45.60
2023-09-16T17:28:06.189Z,45.60
2023-09-16T17:30:36.164Z,45.80
2023-09-16T17:33:04.635Z,45.90
2023-09-16T17:35:32.197Z,46.00
2023-09-16T17:37:59.250Z,45.90
2023-09-16T17:40:26.150Z,46.00
2023-09-16T17:42:53.125Z,46.20
2023-09-16T17:45:20.077Z,46.40
2023-09-16T17:47:47.078Z,46.40
2023-09-16T17:50:14.142Z,46.20
2023-09-16T17:52:42.139Z,46.50
2023-09-16T17:55:09.558Z,46.50
2023-09-16T17:57:36.585Z,46.00
2023-09-16T18:00:03.838Z,46.30
2023-09-16T18:02:41.182Z,46.50
2023-09-16T18:05:08.334Z,46.60
2023-09-16T18:07:35.955Z,46.80
2023-09-16T18:10:04.454Z,46.90
2023-09-16T18:12:31.784Z,47.10
2023-09-16T18:14:59.074Z,47.10
2023-09-16T18:17:26.422Z,47.30
2023-09-16T18:19:53.323Z,47.50
2023-09-16T18:22:20.304Z,47.70
2023-09-16T18:24:47.376Z,47.90
2023-09-16T18:27:14.794Z,48.00
2023-09-16T18:29:41.763Z,48.20
2023-09-16T18:32:08.751Z,48.30
2023-09-16T18:34:35.870Z,48.40
2023-09-16T18:37:03.038Z,48.30
2023-09-16T18:39:31.281Z,48.40
2023-09-16T18:41:58.244Z,48.70
2023-09-16T18:44:25.672Z,48.80
2023-09-16T18:46:52.921Z,48.90
2023-09-16T18:49:20.140Z,48.90
2023-09-16T18:51:47.252Z,48.70
2023-09-16T18:54:14.286Z,48.80
2023-09-16T18:56:41.242Z,48.80
2023-09-16T18:59:08.120Z,48.80
2023-09-16T19:01:35.159Z,48.80
2023-09-16T19:04:02.565Z,49.20
2023-09-16T19:06:29.588Z,49.30
2023-09-16T19:08:56.494Z,49.40
2023-09-16T19:11:25.683Z,49.50
2023-09-16T19:13:53.106Z,49.60
2023-09-16T19:18:47.261Z,49.80
2023-09-16T19:21:14.328Z,49.70
2023-09-16T19:23:42.810Z,49.90
2023-09-16T19:26:09.868Z,50.70
2023-09-16T19:28:36.812Z,50.00
2023-09-16T19:31:04.323Z,50.20
2023-09-16T19:33:31.496Z,50.40
2023-09-16T19:36:01.510Z,50.50
2023-09-16T19:38:28.612Z,50.60
2023-09-16T19:40:56.889Z,52.10
2023-09-16T19:43:24.240Z,52.10
2023-09-16T19:46:00.752Z,51.60
2023-09-16T19:48:27.965Z,51.80
2023-09-16T19:50:54.815Z,51.80
2023-09-16T19:53:21.864Z,51.50
2023-09-16T19:55:48.734Z,51.50
2023-09-16T19:58:15.659Z,51.60
2023-09-16T20:00:42.614Z,52.70
2023-09-16T20:03:09.859Z,54.50
2023-09-16T20:05:38.111Z,54.10
2023-09-16T20:08:06.351Z,53.70
2023-09-16T20:10:34.245Z,53.50
2023-09-16T20:13:01.244Z,53.40
2023-09-16T20:15:28.661Z,53.40
2023-09-16T20:17:55.666Z,53.50
2023-09-16T20:20:22.562Z,53.60
2023-09-16T20:22:49.543Z,53.70
2023-09-16T20:25:16.562Z,53.80
2023-09-16T20:27:43.935Z,53.80
2023-09-16T20:30:11.579Z,54.00
2023-09-16T20:32:38.630Z,54.00
2023-09-16T20:35:05.799Z,54.00
2023-09-16T20:37:32.702Z,53.90
2023-09-16T20:40:00.283Z,54.00
2023-09-16T20:42:28.893Z,54.00
2023-09-16T20:44:56.042Z,54.00
2023-09-16T20:47:23.030Z,53.90
2023-09-16T20:49:49.981Z,54.00
2023-09-16T20:52:17.044Z,53.90
2023-09-16T20:54:45.421Z,53.90
2023-09-16T20:57:12.317Z,53.90
2023-09-16T20:59:39.226Z,53.80
2023-09-16T21:02:06.211Z,53.80
2023-09-16T21:04:33.488Z,53.70
2023-09-16T21:07:00.409Z,53.90
2023-09-16T21:09:27.246Z,54.20
2023-09-16T21:11:54.118Z,54.50
2023-09-16T21:14:21.071Z,54.80
2023-09-16T21:16:48.100Z,55.10
2023-09-16T21:19:15.143Z,55.40
2023-09-16T21:21:43.069Z,56.50
2023-09-16T21:24:10.086Z,55.90
2023-09-16T21:26:36.969Z,56.00
2023-09-16T21:29:04.398Z,57.00
2023-09-16T21:31:31.561Z,56.40
2023-09-16T21:33:58.579Z,56.40
2023-09-16T21:36:25.689Z,56.50
2023-09-16T21:38:52.660Z,56.50
2023-09-16T21:41:19.814Z,56.50
2023-09-16T21:43:47.880Z,56.60
2023-09-16T21:46:17.415Z,56.70
2023-09-16T21:48:44.730Z,56.80
2023-09-16T21:51:11.695Z,57.00
2023-09-16T21:53:38.689Z,57.20
2023-09-16T21:56:05.651Z,57.10
2023-09-16T21:58:32.536Z,57.10
2023-09-16T22:00:59.648Z,57.00
2023-09-16T22:03:26.703Z,57.50
2023-09-16T22:05:54.809Z,56.90
2023-09-16T22:08:21.766Z,56.70
2023-09-16T22:10:48.816Z,56.90
2023-09-16T22:13:15.718Z,57.10
2023-09-16T22:15:42.886Z,57.10
2023-09-16T22:18:09.842Z,56.90
2023-09-16T22:20:39.400Z,57.00
2023-09-16T22:23:06.418Z,57.00
2023-09-16T22:25:33.333Z,57.10
2023-09-16T22:28:00.303Z,57.30
2023-09-16T22:30:27.176Z,57.20
2023-09-16T22:32:54.600Z,57.40
2023-09-16T22:35:21.649Z,57.30
2023-09-16T22:37:48.524Z,57.30
2023-09-16T22:40:15.489Z,57.40
2023-09-16T22:42:43.643Z,57.30
2023-09-16T22:45:11.759Z,57.10
2023-09-16T22:47:38.765Z,57.00
2023-09-16T22:50:06.554Z,57.00
2023-09-16T22:52:33.677Z,57.00
2023-09-16T22:55:01.338Z,56.70
2023-09-16T22:57:28.280Z,56.60
2023-09-16T22:59:56.138Z,56.70
2023-09-16T23:02:24.463Z,56.40
2023-09-16T23:04:52.037Z,56.10
2023-09-16T23:07:19.773Z,56.40
2023-09-16T23:09:46.832Z,56.30
2023-09-16T23:12:13.748Z,56.10
2023-09-16T23:14:40.782Z,56.00
2023-09-16T23:17:08.559Z,55.80
2023-09-16T23:19:35.775Z,55.60
2023-09-16T23:22:02.827Z,55.70
2023-09-16T23:24:29.753Z,55.80
2023-09-16T23:26:56.698Z,56.00
2023-09-16T23:29:23.932Z,55.80
2023-09-16T23:31:51.323Z,55.40
2023-09-16T23:34:18.774Z,55.50
2023-09-16T23:36:45.660Z,55.70
2023-09-16T23:39:12.609Z,55.40
2023-09-16T23:41:39.562Z,55.30
2023-09-16T23:44:07.561Z,55.40
2023-09-16T23:46:36.093Z,55.20
2023-09-16T23:49:03.688Z,55.40
2023-09-16T23:51:30.776Z,55.40
2023-09-16T23:53:57.961Z,55.10
2023-09-16T23:56:25.585Z,54.40
2023-09-16T23:58:52.604Z,54.80
